Terminal Aerodrome Forecast
Issued by NWS

Home | Current Version | Previous Version | Text Only | Print | Product List | Glossary Off
Versions: 1 2 3 4 5 6 7 8 9 10 11 12 13 14 15 16 17 18 19 20 21 22 23 24 25 26 27 28 29 30 31 32 33 34 35 36 37 38 39 40

996
FTUS43 KGRB 252331
TAFRHI
TAF
KRHI 252331Z 2600/2624 31010G14KT P6SM VCSH SCT012 BKN018
      TEMPO 2600/2604 4SM -RA SCT010 BKN022
     FM260900 29006KT P6SM SCT007 BKN010
     FM261200 29008KT P6SM VCSH BKN015
     FM261500 32010KT P6SM VCSH BKN025
     FM262100 32008KT P6SM SCT030 BKN090=

USA.gov is the U.S. government's official web portal to all federal, state and local government web resources and services.